MSC Lirica — HOPW — position and weather

sailwx.info

Track history (hours):
 
Tides and Currents Weather Stations Pressure Air Temp Water Temp Dewpoint Dewpoint Depression Visibility Wind Speed Wind Dir Waves Ship Positions

MSC Lirica

Operator: Mediterranean Shipping Company

Last reported at 2019-Aug-16 19:57 UTC. Time now 2019-Aug-20 10:52 UTC.
Position N 44°25' E 013°08'.

Length 275 m; draft 6.8 m.

Type: Passenger vessel. MMSI: 356042000.

Date/timePositionNaut miles runAvg speedWind from/ knotsBaromVisibWave heightAir tempDewpointWater temp
2019-Aug-16 19:57N 44°25' E 013°08'819.2
2019-Aug-16 19:30N 44°33' E 013°04'1019.0
2019-Aug-16 19:00N 44°42' E 012°60'1019.3
2019-Aug-16 18:30N 44°50' E 012°53'1019.1
2019-Aug-16 18:00N 44°59' E 012°47'1019.2
2019-Aug-16 17:30N 45°07' E 012°40'918.3
2019-Aug-16 17:00N 45°13' E 012°30'918.2
2019-Aug-16 16:30N 45°22' E 012°30'611.0
2019-Aug-16 16:00N 45°26' E 012°24'2 4.4
2019-Aug-16 15:30N 45°26' E 012°21'2 3.0
2019-Aug-16 14:59N 45°26' E 012°19'0 0.0
2019-Aug-16 14:29N 45°26' E 012°19'0 0.0
2019-Aug-16 13:59N 45°26' E 012°19'0 0.0
2019-Aug-16 13:29N 45°26' E 012°19'0 0.0
2019-Aug-16 12:59N 45°26' E 012°19'0 0.0
2019-Aug-16 12:29N 45°26' E 012°19'0 0.0
2019-Aug-16 11:59N 45°26' E 012°19'0 0.0
2019-Aug-16 11:29N 45°26' E 012°19'0 0.0
2019-Aug-16 10:59N 45°26' E 012°19'0 0.0
2019-Aug-16 10:29N 45°26' E 012°19'0 0.0
2019-Aug-16 09:59N 45°26' E 012°19'0 0.0
2019-Aug-16 09:29N 45°26' E 012°19'0 0.0
2019-Aug-16 08:59N 45°26' E 012°19'0 0.0
2019-Aug-16 08:29N 45°26' E 012°19'0 0.0
2019-Aug-16 07:59N 45°26' E 012°19'0 0.0
2019-Aug-16 07:29N 45°26' E 012°19'0 0.0
2019-Aug-16 06:59N 45°26' E 012°19'0 0.2
2019-Aug-16 06:30N 45°26' E 012°18'2 3.8
2019-Aug-16 06:00N 45°26' E 012°21'3 5.7
2019-Aug-16 05:30N 45°26' E 012°25'4 8.3
2019-Aug-16 05:01N 45°24' E 012°30'815.9
2019-Aug-16 04:31N 45°16' E 012°34'917.9
2019-Aug-16 04:01N 45°11' E 012°44'918.7
2019-Aug-16 03:31N 45°06' E 012°55'918.7
2019-Aug-16 03:01N 45°01' E 013°07'918.9
2019-Aug-16 02:31N 44°57' E 013°18'917.9
2019-Aug-16 02:01N 44°50' E 013°28'917.9
2019-Aug-16 01:31N 44°43' E 013°35'918.7
2019-Aug-16 01:01N 44°35' E 013°42'918.7
2019-Aug-16 00:31N 44°27' E 013°49'918.7
2019-Aug-16 00:01N 44°20' E 013°57'918.7
2019-Aug-15 23:30N 44°12' E 014°04'918.8
2019-Aug-15 23:00N 44°04' E 014°12'  
2019-Aug-10 08:42N 41°38' E 016°33'715.2
2019-Aug-10 08:15N 41°45' E 016°30'417.2
2019-Aug-10 08:00N 41°49' E 016°27'5816.4
2019-Aug-10 04:26N 42°35' E 015°40'819.0
2019-Aug-10 04:00N 42°41' E 015°32'1019.0
2019-Aug-10 03:30N 42°48' E 015°23'919.0
2019-Aug-10 03:00N 42°54' E 015°14'1019.1
2019-Aug-10 02:30N 43°01' E 015°05'919.1
2019-Aug-10 02:00N 43°08' E 014°55'918.9
2019-Aug-10 01:30N 43°15' E 014°46'918.7
2019-Aug-10 01:00N 43°21' E 014°37'918.6
2019-Aug-10 00:30N 43°28' E 014°28'918.8
2019-Aug-10 00:00N 43°34' E 014°19'1019.0
2019-Aug-09 23:30N 43°41' E 014°09'918.9
2019-Aug-09 23:00N 43°47' E 013°60'919.0
2019-Aug-09 22:30N 43°53' E 013°49'918.9
2019-Aug-09 22:00N 43°59' E 013°39'1019.1
2019-Aug-09 21:30N 44°04' E 013°28'918.9
2019-Aug-09 21:00N 44°10' E 013°17'918.0
2019-Aug-09 20:30N 44°18' E 013°11'918.4
2019-Aug-09 20:00N 44°26' E 013°06'918.4
2019-Aug-09 19:30N 44°35' E 013°02'918.5
2019-Aug-09 19:00N 44°44' E 012°58'918.7
2019-Aug-09 18:30N 44°52' E 012°52'918.6
2019-Aug-09 18:00N 45°00' E 012°46'918.3
2019-Aug-09 17:30N 45°08' E 012°39'917.5
2019-Aug-09 17:00N 45°14' E 012°30'917.2
2019-Aug-09 16:30N 45°23' E 012°29'510.3
2019-Aug-09 16:00N 45°26' E 012°24'2 4.2
2019-Aug-09 15:30N 45°26' E 012°21'2 3.0
2019-Aug-09 15:00N 45°26' E 012°19'0 0.2
2019-Aug-09 14:30N 45°26' E 012°19'0 0.0
2019-Aug-09 14:00N 45°26' E 012°19'0 0.0
2019-Aug-09 13:27N 45°26' E 012°19'0 0.0
2019-Aug-09 13:00N 45°26' E 012°19'0 0.0
2019-Aug-09 12:30N 45°26' E 012°19'0 0.0
2019-Aug-09 12:00N 45°26' E 012°19'0 0.0
2019-Aug-09 11:30N 45°26' E 012°19'0 0.0
2019-Aug-09 11:00N 45°26' E 012°19'0 0.0
2019-Aug-09 10:30N 45°26' E 012°19'0 0.0
2019-Aug-09 10:00N 45°26' E 012°19'0 0.0
2019-Aug-09 09:30N 45°26' E 012°19'0 0.0
2019-Aug-09 09:00N 45°26' E 012°19'0 0.0
2019-Aug-09 08:30N 45°26' E 012°19'0 0.0
2019-Aug-09 08:00N 45°26' E 012°19'0 0.0
2019-Aug-09 07:30N 45°26' E 012°19'0 0.0
2019-Aug-09 07:00N 45°26' E 012°19'0 1.0
2019-Aug-09 06:30N 45°26' E 012°18'2 4.6
2019-Aug-09 06:00N 45°25' E 012°22'3 5.2
2019-Aug-09 05:30N 45°25' E 012°25'611.5
2019-Aug-09 05:00N 45°22' E 012°31'815.9
2019-Aug-09 04:30N 45°14' E 012°36'918.1
2019-Aug-09 04:00N 45°09' E 012°47'918.8
2019-Aug-09 03:30N 45°05' E 012°58'1019.3
2019-Aug-09 03:00N 45°00' E 013°10'1918.7
2019-Aug-09 02:00N 44°47' E 013°30'1019.2
2019-Aug-09 01:30N 44°39' E 013°37'1019.2
2019-Aug-09 01:00N 44°31' E 013°45'1019.3
2019-Aug-09 00:30N 44°23' E 013°52'1019.3
2019-Aug-09 00:00N 44°15' E 014°00'8918.7
2019-Aug-08 19:13N 43°27' E 015°44'  
Track history (hours):
 
Tides and Currents Weather Stations Pressure Air Temp Water Temp Dewpoint Dewpoint Depression Visibility Wind Speed Wind Dir Waves Ship Positions

MSC Lirica

Operator: Mediterranean Shipping Company

Last reported at 2019-Aug-16 19:57 UTC. Time now 2019-Aug-20 10:52 UTC.
Position N 44°25' E 013°08'.

Length 275 m; draft 6.8 m.

Type: Passenger vessel. MMSI: 356042000.

Date/timePositionNaut miles runAvg speedWind from/ knotsBaromVisibWave heightAir tempDewpointWater temp
2019-Aug-16 19:57N 44°25' E 013°08'819.2
2019-Aug-16 19:30N 44°33' E 013°04'1019.0
2019-Aug-16 19:00N 44°42' E 012°60'1019.3
2019-Aug-16 18:30N 44°50' E 012°53'1019.1
2019-Aug-16 18:00N 44°59' E 012°47'1019.2
2019-Aug-16 17:30N 45°07' E 012°40'918.3
2019-Aug-16 17:00N 45°13' E 012°30'918.2
2019-Aug-16 16:30N 45°22' E 012°30'611.0
2019-Aug-16 16:00N 45°26' E 012°24'2 4.4
2019-Aug-16 15:30N 45°26' E 012°21'2 3.0
2019-Aug-16 14:59N 45°26' E 012°19'0 0.0
2019-Aug-16 14:29N 45°26' E 012°19'0 0.0
2019-Aug-16 13:59N 45°26' E 012°19'0 0.0
2019-Aug-16 13:29N 45°26' E 012°19'0 0.0
2019-Aug-16 12:59N 45°26' E 012°19'0 0.0
2019-Aug-16 12:29N 45°26' E 012°19'0 0.0
2019-Aug-16 11:59N 45°26' E 012°19'0 0.0
2019-Aug-16 11:29N 45°26' E 012°19'0 0.0
2019-Aug-16 10:59N 45°26' E 012°19'0 0.0
2019-Aug-16 10:29N 45°26' E 012°19'0 0.0
2019-Aug-16 09:59N 45°26' E 012°19'0 0.0
2019-Aug-16 09:29N 45°26' E 012°19'0 0.0
2019-Aug-16 08:59N 45°26' E 012°19'0 0.0
2019-Aug-16 08:29N 45°26' E 012°19'0 0.0
2019-Aug-16 07:59N 45°26' E 012°19'0 0.0
2019-Aug-16 07:29N 45°26' E 012°19'0 0.0
2019-Aug-16 06:59N 45°26' E 012°19'0 0.2
2019-Aug-16 06:30N 45°26' E 012°18'2 3.8
2019-Aug-16 06:00N 45°26' E 012°21'3 5.7
2019-Aug-16 05:30N 45°26' E 012°25'4 8.3
2019-Aug-16 05:01N 45°24' E 012°30'815.9
2019-Aug-16 04:31N 45°16' E 012°34'917.9
2019-Aug-16 04:01N 45°11' E 012°44'918.7
2019-Aug-16 03:31N 45°06' E 012°55'918.7
2019-Aug-16 03:01N 45°01' E 013°07'918.9
2019-Aug-16 02:31N 44°57' E 013°18'917.9
2019-Aug-16 02:01N 44°50' E 013°28'917.9
2019-Aug-16 01:31N 44°43' E 013°35'918.7
2019-Aug-16 01:01N 44°35' E 013°42'918.7
2019-Aug-16 00:31N 44°27' E 013°49'918.7
2019-Aug-16 00:01N 44°20' E 013°57'918.7
2019-Aug-15 23:30N 44°12' E 014°04'918.8
2019-Aug-15 23:00N 44°04' E 014°12'  
2019-Aug-10 08:42N 41°38' E 016°33'715.2
2019-Aug-10 08:15N 41°45' E 016°30'417.2
2019-Aug-10 08:00N 41°49' E 016°27'5816.4
2019-Aug-10 04:26N 42°35' E 015°40'819.0
2019-Aug-10 04:00N 42°41' E 015°32'1019.0
2019-Aug-10 03:30N 42°48' E 015°23'919.0
2019-Aug-10 03:00N 42°54' E 015°14'1019.1
2019-Aug-10 02:30N 43°01' E 015°05'919.1
2019-Aug-10 02:00N 43°08' E 014°55'918.9
2019-Aug-10 01:30N 43°15' E 014°46'918.7
2019-Aug-10 01:00N 43°21' E 014°37'918.6
2019-Aug-10 00:30N 43°28' E 014°28'918.8
2019-Aug-10 00:00N 43°34' E 014°19'1019.0
2019-Aug-09 23:30N 43°41' E 014°09'918.9
2019-Aug-09 23:00N 43°47' E 013°60'919.0
2019-Aug-09 22:30N 43°53' E 013°49'918.9
2019-Aug-09 22:00N 43°59' E 013°39'1019.1
2019-Aug-09 21:30N 44°04' E 013°28'918.9
2019-Aug-09 21:00N 44°10' E 013°17'918.0
2019-Aug-09 20:30N 44°18' E 013°11'918.4
2019-Aug-09 20:00N 44°26' E 013°06'918.4
2019-Aug-09 19:30N 44°35' E 013°02'918.5
2019-Aug-09 19:00N 44°44' E 012°58'918.7
2019-Aug-09 18:30N 44°52' E 012°52'918.6
2019-Aug-09 18:00N 45°00' E 012°46'918.3
2019-Aug-09 17:30N 45°08' E 012°39'917.5
2019-Aug-09 17:00N 45°14' E 012°30'917.2
2019-Aug-09 16:30N 45°23' E 012°29'510.3
2019-Aug-09 16:00N 45°26' E 012°24'2 4.2
2019-Aug-09 15:30N 45°26' E 012°21'2 3.0
2019-Aug-09 15:00N 45°26' E 012°19'0 0.2
2019-Aug-09 14:30N 45°26' E 012°19'0 0.0
2019-Aug-09 14:00N 45°26' E 012°19'0 0.0
2019-Aug-09 13:27N 45°26' E 012°19'0 0.0
2019-Aug-09 13:00N 45°26' E 012°19'0 0.0
2019-Aug-09 12:30N 45°26' E 012°19'0 0.0
2019-Aug-09 12:00N 45°26' E 012°19'0 0.0
2019-Aug-09 11:30N 45°26' E 012°19'0 0.0
2019-Aug-09 11:00N 45°26' E 012°19'0 0.0
2019-Aug-09 10:30N 45°26' E 012°19'0 0.0
2019-Aug-09 10:00N 45°26' E 012°19'0 0.0
2019-Aug-09 09:30N 45°26' E 012°19'0 0.0
2019-Aug-09 09:00N 45°26' E 012°19'0 0.0
2019-Aug-09 08:30N 45°26' E 012°19'0 0.0
2019-Aug-09 08:00N 45°26' E 012°19'0 0.0
2019-Aug-09 07:30N 45°26' E 012°19'0 0.0
2019-Aug-09 07:00N 45°26' E 012°19'0 1.0
2019-Aug-09 06:30N 45°26' E 012°18'2 4.6
2019-Aug-09 06:00N 45°25' E 012°22'3 5.2
2019-Aug-09 05:30N 45°25' E 012°25'611.5
2019-Aug-09 05:00N 45°22' E 012°31'815.9
2019-Aug-09 04:30N 45°14' E 012°36'918.1
2019-Aug-09 04:00N 45°09' E 012°47'918.8
2019-Aug-09 03:30N 45°05' E 012°58'1019.3
2019-Aug-09 03:00N 45°00' E 013°10'1918.7
2019-Aug-09 02:00N 44°47' E 013°30'1019.2
2019-Aug-09 01:30N 44°39' E 013°37'1019.2
2019-Aug-09 01:00N 44°31' E 013°45'1019.3
2019-Aug-09 00:30N 44°23' E 013°52'1019.3
2019-Aug-09 00:00N 44°15' E 014°00'8918.7
2019-Aug-08 19:13N 43°27' E 015°44'  

Dump ship's entire track history